Time;durP1;ratioP1;P1;durP2;ratioP2;P2;SDS_P1;SDS_P2;PMS_P1;PMS_P2;Temp;Humidity;BMP_temperature;BMP_pressure;BME280_temperature;BME280_humidity;BME280_pressure;Samples;Min_cycle;Max_cycle;Signal;HPM_P1;HPM_P2
2021/06/19 00:00:20;;;;;;;5.13;4.82;;;13.30;99.90;;;;;;5031758;28;20474;-64
2021/06/19 00:02:47;;;;;;;5.00;4.53;;;13.30;99.90;;;;;;5032852;28;20030;-65
2021/06/19 00:05:15;;;;;;;5.30;4.80;;;13.30;99.90;;;;;;5032925;28;20018;-64
2021/06/19 00:07:43;;;;;;;6.25;5.63;;;13.20;99.90;;;;;;5032901;28;20030;-64
2021/06/19 00:10:13;;;;;;;6.45;6.00;;;13.20;99.90;;;;;;5032822;28;20064;-64
2021/06/19 00:12:41;;;;;;;7.70;6.75;;;13.00;99.90;;;;;;5032926;28;20033;-64
2021/06/19 00:15:11;;;;;;;7.13;6.43;;;13.00;99.90;;;;;;5032768;28;20056;-63
2021/06/19 00:17:39;;;;;;;7.38;6.88;;;12.90;99.90;;;;;;5032828;28;20028;-64
2021/06/19 00:20:13;;;;;;;7.57;6.90;;;12.90;99.90;;;;;;5032631;28;20017;-63
2021/06/19 00:22:40;;;;;;;8.73;8.32;;;12.90;99.90;;;;;;5032785;28;20026;-64
2021/06/19 00:25:09;;;;;;;9.18;8.57;;;12.90;99.90;;;;;;5032789;28;20102;-63
2021/06/19 00:27:37;;;;;;;8.80;8.10;;;12.90;99.90;;;;;;5032722;28;20029;-63
2021/06/19 00:30:07;;;;;;;9.00;8.40;;;12.90;99.90;;;;;;5032666;28;20026;-63
2021/06/19 00:32:34;;;;;;;9.90;9.30;;;12.90;99.90;;;;;;5032749;28;20099;-63
2021/06/19 00:35:04;;;;;;;10.68;9.88;;;12.80;99.90;;;;;;5032699;28;20616;-63
2021/06/19 00:37:33;;;;;;;11.35;10.68;;;12.90;99.90;;;;;;5032794;28;20018;-64
2021/06/19 00:40:09;;;;;;;12.13;11.02;;;12.90;99.90;;;;;;5034614;28;20017;-64
2021/06/19 00:42:37;;;;;;;10.68;10.10;;;12.90;99.90;;;;;;5036887;28;20021;-64
2021/06/19 00:45:06;;;;;;;9.10;8.40;;;13.00;99.90;;;;;;5036643;28;20029;-66
2021/06/19 00:47:36;;;;;;;9.90;9.40;;;13.10;99.90;;;;;;5036688;28;20045;-63
2021/06/19 00:50:04;;;;;;;10.30;9.70;;;13.10;99.90;;;;;;5036447;28;20033;-62
2021/06/19 00:52:31;;;;;;;8.80;8.30;;;13.10;99.90;;;;;;5036449;28;20033;-64
2021/06/19 00:54:58;;;;;;;10.88;9.93;;;13.10;99.90;;;;;;5036193;28;20046;-64
2021/06/19 00:57:26;;;;;;;11.68;11.07;;;13.00;99.90;;;;;;5036356;28;20045;-64
2021/06/19 00:59:57;;;;;;;13.15;12.50;;;13.00;99.90;;;;;;5036439;28;20025;-64
2021/06/19 01:02:25;;;;;;;14.25;13.32;;;13.00;99.90;;;;;;5036378;28;20018;-63
2021/06/19 01:04:53;;;;;;;15.18;14.15;;;13.00;99.90;;;;;;5036192;28;20028;-63
2021/06/19 01:07:21;;;;;;;14.90;13.93;;;13.00;99.90;;;;;;5036496;28;20029;-62
2021/06/19 01:09:48;;;;;;;14.50;13.80;;;13.10;99.90;;;;;;5035951;28;20041;-63
2021/06/19 01:12:27;;;;;;;14.48;13.57;;;13.20;99.90;;;;;;5036159;28;20014;-64
2021/06/19 01:14:55;;;;;;;15.35;14.27;;;13.20;99.90;;;;;;5036195;28;20112;-63
2021/06/19 01:17:23;;;;;;;14.82;14.00;;;13.30;99.90;;;;;;5036222;28;20022;-63
2021/06/19 01:20:20;;;;;;;14.63;13.82;;;13.40;99.90;;;;;;5036052;28;20021;-65
2021/06/19 01:22:53;;;;;;;15.35;14.40;;;13.40;99.90;;;;;;5031308;28;20124;-63
2021/06/19 01:25:24;;;;;;;17.40;16.30;;;13.50;99.90;;;;;;5035887;28;20025;-64
2021/06/19 01:27:53;;;;;;;19.50;18.30;;;13.60;99.90;;;;;;5035887;28;20382;-63
2021/06/19 01:30:27;;;;;;;19.88;18.77;;;13.70;99.90;;;;;;5035882;28;20021;-62
2021/06/19 01:32:55;;;;;;;17.90;16.77;;;13.90;99.90;;;;;;5035779;28;20398;-63
2021/06/19 01:35:24;;;;;;;19.50;18.50;;;14.00;99.90;;;;;;5035601;28;20017;-63
2021/06/19 01:37:57;;;;;;;23.60;22.15;;;14.10;99.90;;;;;;5035655;28;20025;-62
2021/06/19 01:40:29;;;;;;;21.60;20.60;;;14.20;99.90;;;;;;5035584;28;20022;-61
2021/06/19 01:42:58;;;;;;;22.75;21.40;;;14.30;99.90;;;;;;5034134;28;20032;-61
2021/06/19 01:45:28;;;;;;;23.00;21.60;;;14.30;99.90;;;;;;5034296;28;20033;-61
2021/06/19 01:47:59;;;;;;;22.45;21.15;;;14.30;99.90;;;;;;5035459;28;20021;-62
2021/06/19 01:50:27;;;;;;;23.00;21.67;;;14.30;99.90;;;;;;5035245;28;20032;-62
2021/06/19 01:52:54;;;;;;;25.80;24.20;;;14.30;99.90;;;;;;5035102;28;20076;-63
2021/06/19 01:55:23;;;;;;;29.52;27.77;;;14.30;99.90;;;;;;5034749;28;20037;-62
2021/06/19 01:57:53;;;;;;;31.15;29.38;;;14.30;99.90;;;;;;5017396;28;20029;-61
2021/06/19 02:00:26;;;;;;;32.10;30.08;;;14.30;99.90;;;;;;5034913;28;20033;-61
2021/06/19 02:02:54;;;;;;;31.30;29.77;;;14.20;99.90;;;;;;5034873;28;20033;-62
2021/06/19 02:05:22;;;;;;;31.27;29.67;;;14.20;99.90;;;;;;5034874;28;20025;-62
2021/06/19 02:07:54;;;;;;;33.17;31.27;;;14.10;99.90;;;;;;5034937;28;20114;-64
2021/06/19 02:10:24;;;;;;;34.60;32.70;;;14.20;99.90;;;;;;5034724;28;20025;-62
2021/06/19 02:12:52;;;;;;;34.28;32.58;;;14.20;99.90;;;;;;5034832;28;20394;-61
2021/06/19 02:15:20;;;;;;;34.28;32.00;;;14.20;99.90;;;;;;5034695;28;20108;-61
2021/06/19 02:17:47;;;;;;;33.85;31.85;;;14.20;99.90;;;;;;5034699;28;20474;-62
2021/06/19 02:20:17;;;;;;;34.25;32.15;;;14.10;99.90;;;;;;5034651;28;20025;-62
2021/06/19 02:22:45;;;;;;;37.25;35.25;;;14.10;99.90;;;;;;5034595;28;20029;-62
2021/06/19 02:25:14;;;;;;;37.40;35.40;;;14.00;99.90;;;;;;5034571;28;20107;-62
2021/06/19 02:27:49;;;;;;;35.75;33.75;;;14.00;99.90;;;;;;5034716;28;20057;-62
2021/06/19 02:30:17;;;;;;;35.97;34.13;;;14.00;99.90;;;;;;5034549;28;20550;-61
2021/06/19 02:32:45;;;;;;;36.80;34.70;;;14.10;99.90;;;;;;5034243;28;20442;-61
2021/06/19 02:35:13;;;;;;;36.25;34.45;;;14.10;99.90;;;;;;5034313;28;20049;-62
2021/06/19 02:37:40;;;;;;;36.15;34.35;;;14.10;99.90;;;;;;5033163;28;20083;-60
2021/06/19 02:40:08;;;;;;;37.90;35.90;;;14.00;99.90;;;;;;5034306;28;20021;-61
2021/06/19 02:42:36;;;;;;;36.90;34.88;;;13.90;99.90;;;;;;5034224;28;20048;-61
2021/06/19 02:45:12;;;;;;;39.20;37.13;;;13.90;99.90;;;;;;5034110;28;20030;-63
2021/06/19 02:47:54;;;;;;;39.33;37.13;;;13.90;99.90;;;;;;5034156;28;20478;-62
2021/06/19 02:50:25;;;;;;;37.65;35.42;;;13.90;99.90;;;;;;5033992;28;20029;-62
2021/06/19 02:52:52;;;;;;;40.25;38.08;;;13.90;99.90;;;;;;5034063;28;20026;-61
2021/06/19 02:55:23;;;;;;;37.38;35.20;;;13.80;99.90;;;;;;5033809;28;20379;-62
2021/06/19 02:57:50;;;;;;;37.50;35.30;;;13.80;99.90;;;;;;5034037;28;20029;-62
2021/06/19 03:00:22;;;;;;;39.53;37.22;;;13.70;99.90;;;;;;5033822;28;20026;-62
2021/06/19 03:02:50;;;;;;;40.80;38.20;;;13.70;99.90;;;;;;5033275;28;20433;-61
2021/06/19 03:05:20;;;;;;;41.50;39.20;;;13.70;99.90;;;;;;5033843;28;20025;-61
2021/06/19 03:07:48;;;;;;;37.80;35.55;;;13.70;99.90;;;;;;5033923;28;20342;-61
2021/06/19 03:10:18;;;;;;;39.30;37.13;;;13.70;99.90;;;;;;5033656;28;20032;-62
2021/06/19 03:12:45;;;;;;;44.72;42.17;;;13.70;99.90;;;;;;5033954;28;20497;-61
2021/06/19 03:15:14;;;;;;;39.30;36.85;;;13.60;99.90;;;;;;5033601;28;20546;-61
2021/06/19 03:17:42;;;;;;;39.72;37.47;;;13.60;99.90;;;;;;5033554;28;20029;-61
2021/06/19 03:20:11;;;;;;;41.90;39.50;;;13.70;99.90;;;;;;5033547;28;20104;-62
2021/06/19 03:23:01;;;;;;;39.15;36.72;;;13.70;99.90;;;;;;5033462;28;20022;-61
2021/06/19 03:25:33;;;;;;;37.72;35.00;;;13.70;99.90;;;;;;5033320;28;20024;-61
2021/06/19 03:28:04;;;;;;;37.88;35.42;;;13.70;99.90;;;;;;5033426;28;20096;-61
2021/06/19 03:30:35;;;;;;;39.15;36.50;;;13.70;99.90;;;;;;5033376;28;20022;-60
2021/06/19 03:33:04;;;;;;;41.72;38.65;;;13.60;99.90;;;;;;5033307;28;20390;-60
2021/06/19 03:35:32;;;;;;;42.88;40.00;;;13.50;99.90;;;;;;5033261;28;20100;-60
2021/06/19 03:37:59;;;;;;;42.85;40.03;;;13.40;99.90;;;;;;5033138;28;20033;-60
2021/06/19 03:40:29;;;;;;;44.30;41.20;;;13.40;99.90;;;;;;5033185;28;20049;-60
2021/06/19 03:42:57;;;;;;;40.55;37.65;;;13.30;99.90;;;;;;5033054;28;20486;-60
2021/06/19 03:45:28;;;;;;;40.15;37.55;;;13.30;99.90;;;;;;5033072;28;20387;-61
2021/06/19 03:47:56;;;;;;;42.10;38.78;;;13.30;99.90;;;;;;5033148;28;20500;-62
2021/06/19 03:50:26;;;;;;;42.97;39.85;;;13.20;99.90;;;;;;5033024;28;20026;-60
2021/06/19 03:52:55;;;;;;;47.25;43.20;;;13.10;99.90;;;;;;5032994;28;20026;-63
2021/06/19 03:55:23;;;;;;;47.08;43.58;;;13.10;99.90;;;;;;5032873;28;20038;-62
2021/06/19 03:57:51;;;;;;;46.65;43.45;;;13.10;99.90;;;;;;5032928;28;20026;-61
2021/06/19 04:00:20;;;;;;;43.30;40.10;;;13.10;99.90;;;;;;5032881;28;20028;-61
2021/06/19 04:02:47;;;;;;;45.35;41.88;;;13.10;99.90;;;;;;5032906;28;20037;-63
2021/06/19 04:05:15;;;;;;;41.92;38.83;;;13.20;99.90;;;;;;5032787;28;20017;-62
2021/06/19 04:07:46;;;;;;;43.33;40.13;;;13.10;99.90;;;;;;5033128;28;20033;-62
2021/06/19 04:10:15;;;;;;;44.33;41.22;;;13.10;99.90;;;;;;5033042;28;20033;-62
2021/06/19 04:12:43;;;;;;;43.25;40.15;;;13.10;99.90;;;;;;5032913;28;20544;-62
2021/06/19 04:15:12;;;;;;;46.00;42.78;;;13.00;99.90;;;;;;5035253;28;20364;-61
2021/06/19 04:17:40;;;;;;;50.38;46.95;;;13.20;99.90;;;;;;5036975;28;20021;-61
2021/06/19 04:20:09;;;;;;;48.55;45.10;;;13.30;99.90;;;;;;5035660;28;20037;-62
2021/06/19 04:22:36;;;;;;;46.00;42.47;;;13.30;99.90;;;;;;5036836;28;20021;-63
2021/06/19 04:25:06;;;;;;;53.13;49.50;;;13.20;99.90;;;;;;5036888;28;20104;-62
2021/06/19 04:27:43;;;;;;;52.65;49.05;;;13.10;99.90;;;;;;5036767;28;20044;-62
2021/06/19 04:30:12;;;;;;;46.25;42.67;;;13.10;99.90;;;;;;5036724;28;20030;-62
2021/06/19 04:32:41;;;;;;;48.78;44.75;;;13.00;99.90;;;;;;5036584;28;20124;-61
2021/06/19 04:35:08;;;;;;;52.05;48.35;;;;;;;;;;5036654;28;20026;-62
2021/06/19 04:37:36;;;;;;;54.88;50.78;;;12.90;99.90;;;;;;5036683;28;20386;-62
2021/06/19 04:42:38;;;;;;;47.58;44.05;;;12.90;99.90;;;;;;5036612;28;20450;-61
2021/06/19 04:45:08;;;;;;;47.65;44.03;;;12.90;99.90;;;;;;5036414;28;20025;-62
2021/06/19 04:47:36;;;;;;;50.42;46.25;;;12.90;99.90;;;;;;5036499;28;20026;-61
2021/06/19 04:50:06;;;;;;;46.00;42.20;;;12.90;99.90;;;;;;5036377;28;20025;-59
2021/06/19 04:52:35;;;;;;;47.88;44.08;;;12.90;99.90;;;;;;5036148;28;20155;-61
2021/06/19 04:55:04;;;;;;;50.22;46.42;;;12.90;99.90;;;;;;5035970;28;20509;-60
2021/06/19 04:57:31;;;;;;;56.78;52.50;;;12.90;99.90;;;;;;5036520;28;20033;-58
2021/06/19 04:59:59;;;;;;;49.15;45.05;;;12.90;99.90;;;;;;5036242;28;20375;-59
2021/06/19 05:02:27;;;;;;;47.47;43.67;;;12.90;99.90;;;;;;5036219;28;20045;-60
2021/06/19 05:04:54;;;;;;;47.03;43.05;;;12.80;99.90;;;;;;5036165;28;20022;-60
2021/06/19 05:07:21;;;;;;;48.08;44.28;;;12.80;99.90;;;;;;5036055;28;20026;-60
2021/06/19 05:09:49;;;;;;;48.85;44.95;;;12.70;99.90;;;;;;5035944;28;20048;-60
2021/06/19 05:12:16;;;;;;;46.58;42.88;;;12.80;99.90;;;;;;5034411;28;20030;-61
2021/06/19 05:14:43;;;;;;;49.47;45.85;;;12.70;99.90;;;;;;5035686;28;20026;-61
2021/06/19 05:17:11;;;;;;;49.42;45.67;;;12.70;99.90;;;;;;5035865;28;20020;-60
2021/06/19 05:19:38;;;;;;;46.67;42.63;;;12.70;99.90;;;;;;5035835;28;20013;-60
2021/06/19 05:22:05;;;;;;;49.83;45.90;;;12.70;99.90;;;;;;5035803;28;20020;-61
2021/06/19 05:24:34;;;;;;;50.78;46.83;;;12.70;99.90;;;;;;5035741;28;20049;-60
2021/06/19 05:27:01;;;;;;;49.08;45.22;;;12.70;99.90;;;;;;5035270;28;20025;-60
2021/06/19 05:29:28;;;;;;;45.63;41.67;;;12.70;99.90;;;;;;5035605;28;20036;-61
2021/06/19 05:31:56;;;;;;;46.80;43.15;;;12.70;99.90;;;;;;5035533;28;20026;-61
2021/06/19 05:34:23;;;;;;;46.92;43.03;;;12.80;99.90;;;;;;5035425;28;20021;-61
2021/06/19 05:36:50;;;;;;;48.20;44.40;;;;;;;;;;5035294;28;20028;-62
2021/06/19 05:39:17;;;;;;;48.42;44.38;;;;;;;;;;5035382;28;20441;-63
2021/06/19 05:41:45;;;;;;;44.08;40.05;;;;;;;;;;5035406;28;20017;-66
2021/06/19 05:44:12;;;;;;;41.83;38.13;;;;;;;;;;5035247;28;20025;-66
2021/06/19 05:46:39;;;;;;;41.63;38.22;;;;;;;;;;5035263;28;20426;-66
2021/06/19 05:49:07;;;;;;;41.50;38.08;;;13.00;99.90;;;;;;5033939;28;20061;-67
2021/06/19 05:51:35;;;;;;;42.75;38.75;;;13.00;99.90;;;;;;5035256;28;20036;-64
2021/06/19 05:54:03;;;;;;;48.70;44.65;;;;;;;;;;5034761;28;20129;-61
2021/06/19 05:56:33;;;;;;;48.63;44.70;;;;;;;;;;5035064;28;20021;-62
2021/06/19 05:59:01;;;;;;;50.97;46.53;;;;;;;;;;5035130;28;20071;-62
2021/06/19 06:01:31;;;;;;;41.08;37.13;;;;;;;;;;5034870;28;20025;-62
2021/06/19 06:03:59;;;;;;;41.70;38.00;;;;;;;;;;5035295;28;20074;-63
2021/06/19 06:06:26;;;;;;;42.45;38.38;;;;;;;;;;5034769;28;20383;-61
2021/06/19 06:08:54;;;;;;;45.13;39.00;;;;;;;;;;5034852;28;20108;-61
2021/06/19 06:11:21;;;;;;;45.08;40.78;;;;;;;;;;5034851;28;20025;-62
2021/06/19 06:13:49;;;;;;;50.80;46.60;;;;;;;;;;5034692;28;20025;-62
2021/06/19 06:16:16;;;;;;;53.22;48.60;;;;;;;;;;5034632;28;20447;-61
2021/06/19 06:18:43;;;;;;;44.33;40.80;;;;;;;;;;5034873;28;20037;-64
2021/06/19 06:21:10;;;;;;;44.63;40.63;;;;;;;;;;5034492;28;20087;-62
2021/06/19 06:23:37;;;;;;;42.38;38.90;;;;;;;;;;5032923;28;20051;-63
2021/06/19 06:26:04;;;;;;;45.13;41.30;;;;;;;;;;5033228;28;20100;-64
2021/06/19 06:28:32;;;;;;;49.10;45.33;;;;;;;;;;5034266;28;20029;-63
2021/06/19 06:30:59;;;;;;;45.85;41.97;;;;;;;;;;5034541;28;20076;-62
2021/06/19 06:33:27;;;;;;;43.05;39.33;;;;;;;;;;5034048;28;20479;-62
2021/06/19 06:35:55;;;;;;;44.97;41.15;;;;;;;;;;5034293;28;20018;-65
2021/06/19 06:38:23;;;;;;;45.15;41.35;;;;;;;;;;5032240;28;20021;-63
2021/06/19 06:40:50;;;;;;;43.05;39.75;;;;;;;;;;5034265;28;20067;-63
2021/06/19 06:43:17;;;;;;;46.33;42.85;;;;;;;;;;5034217;28;20496;-64
2021/06/19 06:45:44;;;;;;;44.53;40.63;;;;;;;;;;5033978;28;20509;-63
2021/06/19 06:48:12;;;;;;;41.05;37.95;;;;;;;;;;5034016;28;20025;-65
2021/06/19 06:50:39;;;;;;;41.13;37.70;;;;;;;;;;5034010;28;20075;-64
2021/06/19 06:53:06;;;;;;;41.58;37.75;;;;;;;;;;5033778;28;20034;-64
2021/06/19 06:55:33;;;;;;;40.33;36.95;;;;;;;;;;5033786;28;20184;-69
2021/06/19 06:58:01;;;;;;;38.65;35.30;;;;;;;;;;5032640;28;20053;-64
2021/06/19 07:00:28;;;;;;;39.47;36.35;;;;;;;;;;5033920;28;20025;-63
2021/06/19 07:02:55;;;;;;;41.13;37.65;;;;;;;;;;5033844;28;20449;-63
2021/06/19 07:05:22;;;;;;;40.55;36.88;;;;;;;;;;5033822;28;20109;-64
2021/06/19 07:07:49;;;;;;;42.55;38.75;;;;;;;;;;5033761;28;20029;-66
2021/06/19 07:10:16;;;;;;;44.20;40.70;;;;;;;;;;5033620;28;20057;-65
2021/06/19 07:12:45;;;;;;;49.00;45.13;;;;;;;;;;5033633;28;20401;-65
2021/06/19 07:15:13;;;;;;;49.83;45.33;;;;;;;;;;5033468;28;20101;-65
2021/06/19 07:17:41;;;;;;;43.70;39.85;;;;;;;;;;5032344;28;20021;-63
2021/06/19 07:20:09;;;;;;;50.08;45.85;;;;;;;;;;5033390;28;20029;-63
2021/06/19 07:22:36;;;;;;;53.17;48.45;;;;;;;;;;5033361;28;20105;-62
2021/06/19 07:25:07;;;;;;;48.50;44.35;;;;;;;;;;5033386;28;20018;-62
2021/06/19 07:27:34;;;;;;;51.20;46.38;;;;;;;;;;5032039;28;20087;-61
2021/06/19 07:30:01;;;;;;;52.08;47.10;;;;;;;;;;5033124;28;20037;-62
2021/06/19 07:32:29;;;;;;;52.10;47.15;;;;;;;;;;5033240;28;20028;-61
2021/06/19 07:34:56;;;;;;;56.97;51.80;;;;;;;;;;5033137;28;20028;-62
2021/06/19 07:37:23;;;;;;;51.13;46.85;;;;;;;;;;5033048;28;20367;-62
2021/06/19 07:39:53;;;;;;;46.00;41.72;;;;;;;;;;5033056;28;20096;-63
2021/06/19 07:42:23;;;;;;;45.08;40.75;;;;;;;;;;5032811;28;20049;-61
2021/06/19 07:44:51;;;;;;;45.78;41.72;;;;;;;;;;5031673;28;20029;-61
2021/06/19 07:47:18;;;;;;;49.65;44.88;;;;;;;;;;5033016;28;20040;-61
2021/06/19 07:49:45;;;;;;;47.75;43.15;;;;;;;;;;5032708;28;20026;-62
2021/06/19 07:52:12;;;;;;;45.35;41.13;;;;;;;;;;5033211;28;20036;-61
2021/06/19 07:54:39;;;;;;;46.85;42.28;;;;;;;;;;5032497;28;20050;-63
2021/06/19 07:57:07;;;;;;;46.17;41.75;;;;;;;;;;5032785;28;20131;-62
2021/06/19 07:59:35;;;;;;;43.70;39.38;;;;;;;;;;5032751;28;20057;-63
2021/06/19 08:02:02;;;;;;;49.72;44.67;;;;;;;;;;5032740;28;20446;-65
2021/06/19 08:04:29;;;;;;;48.58;44.03;;;;;;;;;;5032724;28;20132;-63
2021/06/19 08:06:56;;;;;;;48.63;44.35;;;;;;;;;;5032698;28;20053;-62
2021/06/19 08:09:23;;;;;;;44.80;40.10;;;;;;;;;;5032712;28;20079;-61
2021/06/19 08:11:51;;;;;;;43.65;39.72;;;;;;;;;;5032927;28;20022;-64
2021/06/19 08:14:18;;;;;;;44.35;39.97;;;;;;;;;;5032526;28;20033;-63
2021/06/19 08:16:50;;;;;;;42.67;38.63;;;;;;;;;;5032681;28;20018;-62
2021/06/19 08:19:18;;;;;;;38.72;34.83;;;;;;;;;;5032746;28;20466;-62
2021/06/19 08:21:45;;;;;;;39.28;35.45;;;;;;;;;;5031302;28;20018;-62
2021/06/19 08:24:12;;;;;;;36.63;32.85;;;;;;;;;;5032358;28;20443;-62
2021/06/19 08:26:40;;;;;;;43.13;39.05;;;;;;;;;;5032527;28;20083;-62
2021/06/19 08:29:07;;;;;;;38.33;34.63;;;;;;;;;;5032527;28;20429;-63
2021/06/19 08:31:35;;;;;;;38.83;33.78;;;;;;;;;;5032307;28;20017;-63
2021/06/19 08:34:03;;;;;;;36.95;33.17;;;;;;;;;;5032510;28;20033;-62
2021/06/19 08:36:30;;;;;;;36.97;33.05;;;;;;;;;;5032512;28;20536;-62
2021/06/19 08:38:57;;;;;;;33.97;30.77;;;;;;;;;;5032539;28;20145;-64
2021/06/19 08:41:25;;;;;;;34.10;30.90;;;;;;;;;;5032342;28;20144;-63
2021/06/19 08:43:52;;;;;;;37.65;33.63;;;;;;;;;;5032453;28;20026;-63
2021/06/19 08:46:20;;;;;;;36.80;33.70;;;;;;;;;;5032575;28;20029;-62
2021/06/19 08:48:56;;;;;;;37.58;32.80;;;;;;;;;;5032517;28;20037;-64
2021/06/19 08:51:24;;;;;;;33.63;30.30;;;;;;;;;;5032435;28;20029;-62
2021/06/19 08:53:52;;;;;;;34.88;31.52;;;;;;;;;;5031866;28;20018;-63
2021/06/19 08:56:21;;;;;;;33.80;30.77;;;;;;;;;;5032322;28;20030;-63
2021/06/19 08:58:49;;;;;;;35.35;31.73;;;;;;;;;;5032031;28;20018;-62
2021/06/19 09:01:16;;;;;;;33.75;30.77;;;;;;;;;;5034319;28;20033;-64
2021/06/19 09:03:44;;;;;;;32.72;29.85;;;;;;;;;;5036048;28;20029;-65
2021/06/19 09:06:27;;;;;;;33.97;30.80;;;;;;;;;;5035999;28;20494;-64
2021/06/19 09:09:14;;;;;;;33.35;30.17;;;;;;;;;;5035852;28;20087;-63
2021/06/19 09:11:43;;;;;;;32.58;29.70;;;;;;;;;;5035787;28;20021;-63
2021/06/19 09:14:14;;;;;;;32.95;29.88;;;;;;;;;;5035674;28;20040;-63
2021/06/19 09:16:45;;;;;;;32.90;30.02;;;;;;;;;;5035793;28;20014;-63
2021/06/19 09:19:31;;;;;;;33.15;30.10;;;;;;;;;;5035729;28;20105;-63
2021/06/19 09:22:14;;;;;;;33.67;30.13;;;;;;;;;;5035683;28;20025;-67
2021/06/19 09:24:43;;;;;;;33.60;30.17;;;;;;;;;;5035481;28;20029;-66
2021/06/19 09:27:28;;;;;;;30.20;27.52;;;;;;;;;;5035441;28;20025;-65
2021/06/19 09:30:15;;;;;;;34.08;31.10;;;;;;;;;;5035455;28;20129;-65
2021/06/19 09:32:47;;;;;;;35.47;32.53;;;;;;;;;;5035257;28;20061;-65
2021/06/19 09:35:16;;;;;;;35.95;32.85;;;;;;;;;;5035300;28;20029;-67
2021/06/19 09:37:44;;;;;;;35.30;31.77;;;;;;;;;;5035363;28;20390;-65
2021/06/19 09:40:23;;;;;;;34.40;31.50;;;;;;;;;;5035249;28;20017;-66
2021/06/19 09:42:51;;;;;;;37.58;34.08;;;;;;;;;;5035283;28;20021;-65
2021/06/19 09:45:25;;;;;;;39.80;35.85;;;13.40;99.90;;;;;;5034052;28;20057;-65
2021/06/19 09:47:53;;;;;;;37.97;34.75;;;13.30;99.90;;;;;;5035196;28;20018;-64
2021/06/19 09:50:21;;;;;;;35.88;33.00;;;13.40;99.90;;;;;;5035234;28;20413;-64
2021/06/19 09:52:48;;;;;;;36.97;33.58;;;13.20;99.90;;;;;;5035139;28;20385;-64
2021/06/19 09:55:16;;;;;;;37.60;34.03;;;13.30;99.90;;;;;;5034913;28;20444;-63
2021/06/19 09:57:49;;;;;;;36.67;33.50;;;13.30;99.90;;;;;;5035009;28;20458;-64
2021/06/19 10:00:21;;;;;;;36.47;33.33;;;13.30;99.90;;;;;;5034969;28;20033;-65
2021/06/19 10:02:49;;;;;;;34.95;32.13;;;13.40;99.90;;;;;;5034936;28;20053;-65
2021/06/19 10:05:17;;;;;;;37.33;33.58;;;13.40;99.90;;;;;;5034937;28;20035;-65
2021/06/19 10:07:47;;;;;;;38.28;34.72;;;13.40;99.90;;;;;;5034807;28;20104;-65
2021/06/19 10:10:14;;;;;;;37.42;33.92;;;13.60;99.90;;;;;;5034722;28;20466;-65
2021/06/19 10:12:42;;;;;;;39.03;35.22;;;13.60;99.90;;;;;;5033496;28;20083;-66
2021/06/19 10:15:15;;;;;;;36.83;33.72;;;13.50;99.90;;;;;;5034775;28;20062;-65
2021/06/19 10:17:45;;;;;;;39.55;35.90;;;13.30;99.90;;;;;;5034835;28;20025;-66
2021/06/19 10:20:13;;;;;;;39.63;36.23;;;;;;;;;;5034737;28;20034;-66
2021/06/19 10:22:42;;;;;;;37.38;34.15;;;13.30;99.90;;;;;;5034832;28;20032;-68
2021/06/19 10:25:13;;;;;;;37.35;34.13;;;13.10;99.90;;;;;;5034551;28;20026;-65
2021/06/19 10:27:51;;;;;;;38.00;34.15;;;13.20;99.90;;;;;;5034586;28;20048;-64
2021/06/19 10:30:23;;;;;;;39.13;35.75;;;13.20;99.90;;;;;;5034451;28;20017;-66
2021/06/19 10:32:51;;;;;;;40.50;37.08;;;13.10;99.90;;;;;;5034645;28;20029;-65
2021/06/19 10:35:21;;;;;;;42.85;39.42;;;13.00;99.90;;;;;;5033823;28;20060;-64
2021/06/19 10:37:51;;;;;;;46.05;42.47;;;12.90;99.90;;;;;;5034159;28;20025;-64
2021/06/19 10:40:26;;;;;;;45.03;41.25;;;12.70;99.90;;;;;;5033325;28;20025;-64
2021/06/19 10:43:17;;;;;;;45.08;41.25;;;12.60;99.90;;;;;;5034228;28;20406;-65
2021/06/19 10:45:45;;;;;;;45.97;42.45;;;12.60;99.90;;;;;;5032914;28;20062;-64
2021/06/19 10:48:18;;;;;;;41.92;38.70;;;12.60;99.90;;;;;;5034103;28;20056;-63
2021/06/19 10:50:51;;;;;;;39.72;36.13;;;12.80;99.90;;;;;;5034178;28;20017;-65
2021/06/19 10:53:22;;;;;;;42.15;38.85;;;12.90;99.90;;;;;;5033979;28;20029;-64
2021/06/19 10:55:58;;;;;;;42.60;39.35;;;13.00;99.90;;;;;;5033733;28;20049;-65
2021/06/19 10:58:28;;;;;;;41.67;38.13;;;13.10;99.90;;;;;;5033900;28;20025;-67
2021/06/19 11:00:58;;;;;;;40.60;37.50;;;13.10;99.90;;;;;;5033905;28;20021;-66
2021/06/19 11:03:57;;;;;;;42.00;38.67;;;13.10;99.90;;;;;;5033929;28;20025;-65
2021/06/19 11:06:39;;;;;;;42.83;39.58;;;13.10;99.90;;;;;;5029426;28;20494;-66
2021/06/19 11:09:20;;;;;;;45.42;41.88;;;13.00;99.90;;;;;;5033753;28;20529;-66
2021/06/19 11:11:59;;;;;;;46.53;42.80;;;12.90;99.90;;;;;;5033596;28;20033;-65
2021/06/19 11:14:51;;;;;;;43.85;40.03;;;12.70;99.90;;;;;;5033568;28;20057;-66
2021/06/19 11:17:21;;;;;;;46.33;42.42;;;12.70;99.90;;;;;;5030896;28;20045;-65
2021/06/19 11:19:54;;;;;;;48.03;43.92;;;12.60;99.90;;;;;;5032187;28;20033;-67
2021/06/19 11:22:37;;;;;;;45.55;41.30;;;12.50;99.90;;;;;;5033511;28;20021;-66
2021/06/19 11:25:35;;;;;;;45.67;41.55;;;12.70;99.90;;;;;;5033258;28;20021;-65
2021/06/19 11:28:26;;;;;;;43.92;40.47;;;12.60;99.90;;;;;;5032919;28;20037;-66
2021/06/19 11:30:54;;;;;;;43.50;39.95;;;12.70;99.90;;;;;;5033355;28;20108;-66
2021/06/19 11:33:23;;;;;;;43.47;39.85;;;12.70;99.90;;;;;;5033225;28;20099;-65
2021/06/19 11:36:05;;;;;;;41.28;38.03;;;12.80;99.90;;;;;;5033389;28;20014;-65
2021/06/19 11:39:01;;;;;;;42.10;38.95;;;12.90;99.90;;;;;;5033276;28;20024;-65
2021/06/19 11:41:35;;;;;;;41.97;38.95;;;12.90;99.90;;;;;;5033258;28;20033;-65
2021/06/19 11:44:09;;;;;;;44.55;40.22;;;12.90;99.90;;;;;;5033276;28;20425;-65
2021/06/19 11:46:36;;;;;;;44.90;41.30;;;12.90;99.90;;;;;;5031891;28;20025;-66
2021/06/19 11:49:10;;;;;;;45.15;41.35;;;12.80;99.90;;;;;;5033108;28;20032;-66
2021/06/19 11:51:37;;;;;;;43.70;40.42;;;12.80;99.90;;;;;;5032934;28;20478;-65
2021/06/19 11:54:06;;;;;;;42.75;39.17;;;12.80;99.90;;;;;;5031319;28;20115;-66
2021/06/19 11:56:33;;;;;;;43.25;40.10;;;12.80;99.90;;;;;;5033038;28;20393;-66
2021/06/19 11:59:03;;;;;;;42.13;38.85;;;12.80;99.90;;;;;;5031535;28;20482;-66
2021/06/19 12:01:37;;;;;;;42.15;39.03;;;12.80;99.90;;;;;;5032940;28;20367;-66
2021/06/19 12:04:06;;;;;;;41.72;38.45;;;12.80;99.90;;;;;;5032912;28;20017;-67
2021/06/19 12:06:36;;;;;;;45.35;41.70;;;12.80;99.90;;;;;;5032908;28;20022;-67
2021/06/19 12:09:05;;;;;;;47.53;43.45;;;12.70;99.90;;;;;;5032886;28;20021;-66
2021/06/19 12:11:34;;;;;;;45.78;42.05;;;12.60;99.90;;;;;;5032976;28;20108;-66
2021/06/19 12:14:14;;;;;;;46.35;42.40;;;12.50;99.90;;;;;;5032698;28;20029;-66
2021/06/19 12:16:42;;;;;;;46.47;42.75;;;12.60;99.90;;;;;;5032801;28;20018;-66
2021/06/19 12:19:09;;;;;;;50.67;46.58;;;12.60;99.90;;;;;;5032747;28;20060;-66
2021/06/19 12:21:40;;;;;;;46.97;42.95;;;12.50;99.90;;;;;;5032828;28;20390;-65
2021/06/19 12:24:24;;;;;;;45.72;41.78;;;12.50;99.90;;;;;;5032852;28;20080;-64
2021/06/19 12:27:18;;;;;;;45.97;41.90;;;12.40;99.90;;;;;;5031674;28;20038;-66
2021/06/19 12:29:48;;;;;;;47.38;43.38;;;12.30;99.90;;;;;;5031804;28;20116;-64
2021/06/19 12:32:25;;;;;;;51.33;46.63;;;12.20;99.90;;;;;;5032716;28;20462;-65
2021/06/19 12:34:58;;;;;;;49.72;45.20;;;12.10;99.90;;;;;;5032582;28;20455;-65
2021/06/19 12:37:31;;;;;;;54.13;50.08;;;12.00;99.90;;;;;;5036641;28;20037;-64
2021/06/19 12:40:00;;;;;;;54.35;49.65;;;11.90;99.90;;;;;;5036555;28;20604;-64
2021/06/19 12:42:43;;;;;;;55.10;50.85;;;11.90;99.90;;;;;;5036292;28;20385;-66
2021/06/19 12:45:12;;;;;;;58.33;53.78;;;11.80;99.90;;;;;;5036574;28;20017;-65
2021/06/19 12:47:45;;;;;;;56.03;51.50;;;11.70;99.90;;;;;;5036459;28;20033;-64
2021/06/19 12:50:15;;;;;;;52.83;48.35;;;11.70;99.90;;;;;;5036194;28;20041;-65
2021/06/19 12:53:00;;;;;;;55.22;50.08;;;11.60;99.90;;;;;;5034931;28;20028;-64
2021/06/19 12:55:34;;;;;;;56.80;51.80;;;11.60;99.90;;;;;;5035833;28;20363;-64
2021/06/19 12:58:10;;;;;;;64.75;59.58;;;11.60;99.90;;;;;;5036156;28;20021;-65
2021/06/19 13:00:47;;;;;;;63.95;58.65;;;11.60;99.90;;;;;;5035998;28;20025;-64
2021/06/19 13:03:21;;;;;;;63.90;58.67;;;11.50;99.90;;;;;;5036021;28;20492;-64
2021/06/19 13:06:01;;;;;;;58.90;53.63;;;11.50;99.90;;;;;;5034594;28;20036;-65
2021/06/19 13:08:31;;;;;;;61.60;56.65;;;11.50;99.90;;;;;;5035964;28;20040;-65
2021/06/19 13:11:00;;;;;;;64.68;59.78;;;11.50;99.90;;;;;;5035894;28;20069;-64
2021/06/19 13:13:38;;;;;;;73.18;68.47;;;11.50;99.90;;;;;;5035776;28;20029;-64
2021/06/19 13:16:05;;;;;;;73.30;68.20;;;11.60;99.90;;;;;;5035750;28;20018;-65
2021/06/19 13:18:33;;;;;;;72.13;66.82;;;11.50;99.90;;;;;;5035928;28;20021;-65